Time;durP1;ratioP1;P1;durP2;ratioP2;P2;SDS_P1;SDS_P2;PMS_P1;PMS_P2;Temp;Humidity;BMP_temperature;BMP_pressure;BME280_temperature;BME280_humidity;BME280_pressure;Samples;Min_cycle;Max_cycle;Signal;HPM_P1;HPM_P2
2023/06/06 00:00:50;;;;;;;5.8;5.2;;;;;;;12.35;98.80957;937.5464;;;;
2023/06/06 00:07:03;;;;;;;5.7;4.5;;;;;;;12.3;99.08398;937.5168;;;;
2023/06/06 00:09:26;;;;;;;5.7;4.6;;;;;;;12.37;98.74512;937.5145;;;;
2023/06/06 00:11:51;;;;;;;5;4.4;;;;;;;12.43;97.88965;937.4334;;;;
2023/06/06 00:14:44;;;;;;;4.8;4.3;;;;;;;12.47;97.33398;937.4734;;;;
2023/06/06 00:17:20;;;;;;;5.2;4.7;;;;;;;12.5;96.44531;937.4646;;;;
2023/06/06 00:19:45;;;;;;;6.2;4.6;;;;;;;12.45;95.73535;937.3528;;;;
2023/06/06 00:22:09;;;;;;;5.5;4.6;;;;;;;12.3;96.78125;937.3915;;;;
2023/06/06 00:24:37;;;;;;;5;4.5;;;;;;;12.2;98.27051;937.2817;;;;
2023/06/06 00:27:02;;;;;;;5.8;5.2;;;;;;;12.22;97.70313;937.3929;;;;
2023/06/06 00:29:27;;;;;;;5.3;4.7;;;;;;;12.23;97.65918;937.4377;;;;
2023/06/06 00:31:53;;;;;;;6.9;4.9;;;;;;;12.06;97.87305;937.4586;;;;
2023/06/06 00:34:18;;;;;;;5;4.5;;;;;;;11.89;99.16309;937.4922;;;;
2023/06/06 00:39:53;;;;;;;5.5;4.5;;;;;;;11.82;99.89258;937.3779;;;;
2023/06/06 00:42:18;;;;;;;5.6;4.9;;;;;;;11.87;99.9834;937.2703;;;;
2023/06/06 00:44:47;;;;;;;5.2;4.7;;;;;;;11.95;99.30371;937.2745;;;;
2023/06/06 00:47:12;;;;;;;5.8;4.8;;;;;;;11.93;98.95313;937.3184;;;;
2023/06/06 00:49:38;;;;;;;5.6;5.1;;;;;;;11.98;98.7373;937.3552;;;;
2023/06/06 00:52:03;;;;;;;5.5;4.9;;;;;;;11.75;99.14355;937.4433;;;;
2023/06/06 00:54:32;;;;;;;5.1;4.6;;;;;;;11.68;99.8252;937.4215;;;;
2023/06/06 00:56:57;;;;;;;5.5;4.8;;;;;;;11.71;99.90039;937.459;;;;
2023/06/06 00:59:25;;;;;;;5.4;4.9;;;;;;;11.74;99.67969;937.3603;;;;
2023/06/06 01:01:50;;;;;;;5.3;4.7;;;;;;;11.83;98.93262;937.4417;;;;
2023/06/06 01:04:20;;;;;;;5.1;4.6;;;;;;;11.93;98.37109;937.4428;;;;
2023/06/06 01:06:45;;;;;;;5.2;4.7;;;;;;;11.95;97.45703;937.4333;;;;
2023/06/06 01:09:11;;;;;;;5.2;4.7;;;;;;;11.96;97.28906;937.4126;;;;
2023/06/06 01:11:35;;;;;;;5.6;4.8;;;;;;;11.93;96.81348;937.5433;;;;
2023/06/06 01:14:01;;;;;;;5.3;4.8;;;;;;;11.86;96.20215;937.4794;;;;
2023/06/06 01:16:25;;;;;;;5.3;4.8;;;;;;;11.82;95.62109;937.5103;;;;
2023/06/06 01:18:53;;;;;;;6.2;4.9;;;;;;;11.66;96.48828;937.545;;;;
2023/06/06 01:21:19;;;;;;;5.3;4.5;;;;;;;11.76;95.65137;937.5446;;;;
2023/06/06 01:23:45;;;;;;;7.4;5.2;;;;;;;11.73;95.77344;937.5477;;;;
2023/06/06 01:26:13;;;;;;;6.4;4.9;;;;;;;11.71;96.07617;937.5652;;;;
2023/06/06 01:28:38;;;;;;;6.3;5.1;;;;;;;11.78;96.24121;937.5655;;;;
2023/06/06 01:31:07;;;;;;;6.5;5;;;;;;;11.84;96.09277;937.5399;;;;
2023/06/06 01:38:41;;;;;;;5.3;4.8;;;;;;;11.64;97.32129;937.6104;;;;
2023/06/06 01:41:10;;;;;;;5.2;4.7;;;;;;;11.59;97.74414;937.5373;;;;
2023/06/06 01:43:35;;;;;;;5.9;5.1;;;;;;;11.53;98.05273;937.5857;;;;
2023/06/06 01:46:02;;;;;;;5.3;4.7;;;;;;;11.45;97.31152;937.5789;;;;
2023/06/06 01:48:27;;;;;;;5.8;5.2;;;;;;;11.49;96.83887;937.6437;;;;
2023/06/06 01:50:54;;;;;;;5.1;4.6;;;;;;;11.36;96.62793;937.6994;;;;
2023/06/06 01:53:19;;;;;;;5.1;4.6;;;;;;;11.34;96.49805;937.6625;;;;
2023/06/06 01:55:44;;;;;;;5.9;5.1;;;;;;;11.34;96.49805;937.7224;;;;
2023/06/06 01:58:12;;;;;;;5.6;5;;;;;;;11.43;96.80371;937.7015;;;;
2023/06/06 02:00:37;;;;;;;8.1;5;;;;;;;11.41;97.04004;937.769;;;;
2023/06/06 02:03:03;;;;;;;5.8;5.2;;;;;;;11.3;97.02734;937.8353;;;;
2023/06/06 02:05:31;;;;;;;6.2;4.8;;;;;;;11.46;96.62695;937.8142;;;;
2023/06/06 02:07:56;;;;;;;6.3;4.8;;;;;;;11.41;96.75586;937.8251;;;;
2023/06/06 02:10:25;;;;;;;7.1;5.1;;;;;;;11.48;96.11621;937.8167;;;;
2023/06/06 02:12:50;;;;;;;5.4;4.9;;;;;;;11.47;96.67676;937.7839;;;;
2023/06/06 02:15:16;;;;;;;5.2;4.7;;;;;;;11.52;96.59668;937.7746;;;;
2023/06/06 02:17:42;;;;;;;5.4;4.9;;;;;;;11.58;96.37988;937.8283;;;;
2023/06/06 02:20:11;;;;;;;5.5;4.5;;;;;;;11.53;96.47168;937.868;;;;
2023/06/06 02:22:35;;;;;;;4.9;4.5;;;;;;;11.4;97.27832;937.7419;;;;
2023/06/06 02:25:03;;;;;;;5.2;4.7;;;;;;;11.23;98.09961;937.78;;;;
2023/06/06 02:27:26;;;;;;;5.1;4.6;;;;;;;11.26;98.51563;937.8168;;;;
2023/06/06 02:29:53;;;;;;;5.2;4.7;;;;;;;11.08;99.25391;937.8592;;;;
2023/06/06 02:32:18;;;;;;;5.3;4.8;;;;;;;10.96;100;937.8237;;;;
2023/06/06 02:34:44;;;;;;;5.3;4.8;;;;;;;11.06;99.98145;937.8591;;;;
2023/06/06 02:37:09;;;;;;;6.2;4.7;;;;;;;11.12;99.30762;937.838;;;;
2023/06/06 02:39:36;;;;;;;6.8;4.5;;;;;;;11.08;99.33398;937.8521;;;;
2023/06/06 02:45:41;;;;;;;6.3;5;;;;;;;11.38;98.55371;937.9473;;;;
2023/06/06 02:48:08;;;;;;;4.6;4.2;;;;;;;11.42;97.91309;937.9256;;;;
2023/06/06 02:50:33;;;;;;;5.8;4.6;;;;;;;11.37;97.58105;937.9944;;;;
2023/06/06 02:53:03;;;;;;;5.1;4.4;;;;;;;11.32;97.68359;937.9455;;;;
2023/06/06 02:55:27;;;;;;;4.5;4.1;;;;;;;11.32;97.5459;937.9997;;;;
2023/06/06 02:57:53;;;;;;;5.1;4.6;;;;;;;11.24;97.64355;938.0016;;;;
2023/06/06 03:00:18;;;;;;;4.8;4.3;;;;;;;11.18;97.77832;937.9675;;;;
2023/06/06 03:02:50;;;;;;;4.5;4.1;;;;;;;11.2;97.65625;937.9667;;;;
2023/06/06 03:05:17;;;;;;;5.4;4;;;;;;;11.12;97.38672;937.9886;;;;
2023/06/06 03:07:42;;;;;;;5.6;4.3;;;;;;;11.03;98.21289;937.9266;;;;
2023/06/06 03:10:15;;;;;;;5.2;4.2;;;;;;;11.04;98.35156;937.9075;;;;
2023/06/06 03:12:45;;;;;;;6.9;4.5;;;;;;;11.03;98.75;937.8867;;;;
2023/06/06 03:15:20;;;;;;;5.3;4.2;;;;;;;11.1;98.83496;937.8083;;;;
2023/06/06 03:17:50;;;;;;;5.3;4.8;;;;;;;11.21;98.86914;937.8903;;;;
2023/06/06 03:20:16;;;;;;;5.2;4.7;;;;;;;11.28;98.36133;937.9412;;;;
2023/06/06 03:22:43;;;;;;;6.1;4.6;;;;;;;11.33;98.2002;937.9009;;;;
2023/06/06 03:25:09;;;;;;;4.5;4;;;;;;;11.38;97.80078;937.9363;;;;
2023/06/06 03:27:36;;;;;;;5.2;4.6;;;;;;;11.38;97.13672;937.8781;;;;
2023/06/06 03:30:06;;;;;;;5;4.5;;;;;;;11.37;96.82422;937.9465;;;;
2023/06/06 03:34:53;;;;;;;5.1;4.6;;;;;;;11.4;95.97363;937.9691;;;;
2023/06/06 03:37:18;;;;;;;5.1;4.6;;;;;;;11.32;96.01367;937.9869;;;;
2023/06/06 03:39:45;;;;;;;4.8;4.4;;;;;;;11.27;96.76953;938.0209;;;;
2023/06/06 03:42:10;;;;;;;4.9;4.4;;;;;;;11.02;98.10742;938.0549;;;;
2023/06/06 03:44:38;;;;;;;5;4.5;;;;;;;11.09;98.29492;938.0123;;;;
2023/06/06 03:47:03;;;;;;;4.9;4.4;;;;;;;11.17;97.91113;938.0622;;;;
2023/06/06 03:49:35;;;;;;;5.9;4.5;;;;;;;11.24;97.50684;937.9928;;;;
2023/06/06 03:51:55;;;;;;;6.1;4.6;;;;;;;11.28;97.62891;938.0234;;;;
2023/06/06 03:54:22;;;;;;;5;4.2;;;;;;;11.29;97.10547;938.0011;;;;
2023/06/06 03:56:47;;;;;;;5.8;4.6;;;;;;;11.39;96.67188;938.0416;;;;
2023/06/06 03:59:13;;;;;;;5.7;4.6;;;;;;;11.38;96.59766;938.0016;;;;
2023/06/06 04:02:31;;;;;;;5.3;4.3;;;;;;;11.37;96.76855;938.0597;;;;
2023/06/06 04:04:55;;;;;;;4.9;4.1;;;;;;;11.35;96.75098;938.0302;;;;
2023/06/06 04:07:20;;;;;;;5.5;4.9;;;;;;;11.37;96.3916;937.9521;;;;
2023/06/06 04:09:48;;;;;;;5.1;4.7;;;;;;;11.34;96.3623;938.0516;;;;
2023/06/06 04:12:13;;;;;;;6.1;5.2;;;;;;;11.38;96.27734;938.0151;;;;
2023/06/06 04:14:40;;;;;;;5.4;4.9;;;;;;;11.41;96.25098;938.0145;;;;
2023/06/06 04:17:07;;;;;;;4.9;4.4;;;;;;;11.43;95.79883;938.0373;;;;
2023/06/06 04:19:32;;;;;;;6;4.4;;;;;;;11.46;95.66602;938.0829;;;;
2023/06/06 04:21:57;;;;;;;6;4.6;;;;;;;11.33;96.01563;938.0611;;;;
2023/06/06 04:24:22;;;;;;;7.7;4.5;;;;;;;11.2;97.07324;937.9747;;;;
2023/06/06 04:26:49;;;;;;;4.8;4.4;;;;;;;11.23;97.51465;938.0613;;;;
2023/06/06 04:29:14;;;;;;;5.7;5.1;;;;;;;11.32;97.41992;938.0627;;;;
2023/06/06 04:31:44;;;;;;;5;4.3;;;;;;;11.17;96.93945;937.9992;;;;
2023/06/06 04:34:09;;;;;;;5.7;4.8;;;;;;;11.18;97.74219;938.0383;;;;
2023/06/06 04:36:38;;;;;;;6.1;5;;;;;;;11.32;97.16895;938.0179;;;;
2023/06/06 04:39:02;;;;;;;5.8;4.4;;;;;;;11.39;96.73828;938.0383;;;;
2023/06/06 04:41:33;;;;;;;5.6;4.9;;;;;;;11.47;96.52734;938.0637;;;;
2023/06/06 04:43:54;;;;;;;5.2;4.5;;;;;;;11.55;96.13379;938.0339;;;;
2023/06/06 04:46:47;;;;;;;5.5;4.9;;;;;;;11.67;95.63379;938.0675;;;;
2023/06/06 04:49:13;;;;;;;5.3;4.4;;;;;;;11.72;94.95605;938.098;;;;
2023/06/06 04:51:37;;;;;;;5.3;4.7;;;;;;;11.81;95.19336;938.0014;;;;
2023/06/06 04:54:05;;;;;;;6.9;4.9;;;;;;;11.84;95.7168;938.1303;;;;
2023/06/06 04:56:30;;;;;;;6.6;4.6;;;;;;;11.96;95.57129;938.0956;;;;
2023/06/06 04:59:05;;;;;;;6.1;4.9;;;;;;;12.06;94.92871;938.0844;;;;
2023/06/06 05:01:30;;;;;;;6.2;5.3;;;;;;;12.29;94.45215;938.0789;;;;
2023/06/06 05:03:57;;;;;;;6.2;4.5;;;;;;;13.27;93.7334;938.0108;;;;
2023/06/06 05:06:25;;;;;;;4.8;4;;;;;;;13.87;86.18848;938.1102;;;;
2023/06/06 05:08:54;;;;;;;4;3.2;;;;;;;15.13;81.22363;937.9941;;;;
2023/06/06 05:11:17;;;;;;;4.3;3.3;;;;;;;16.41;75.95313;937.9628;;;;
2023/06/06 05:13:46;;;;;;;3.3;3;;;;;;;17.25;70.65918;937.8706;;;;
2023/06/06 05:16:12;;;;;;;3.2;2.7;;;;;;;18.01;68.08594;937.9264;;;;
2023/06/06 05:18:39;;;;;;;3.3;2.8;;;;;;;18.51;64.06055;937.9055;;;;
2023/06/06 05:21:04;;;;;;;3.3;3;;;;;;;17.96;66.84863;937.9;;;;
2023/06/06 05:23:32;;;;;;;3.9;2.9;;;;;;;17.66;67.43066;937.9509;;;;
2023/06/06 05:25:58;;;;;;;4;3.2;;;;;;;19.15;63.80273;937.8494;;;;
2023/06/06 05:28:27;;;;;;;5;3.1;;;;;;;19.9;59.83984;937.8704;;;;
2023/06/06 05:30:56;;;;;;;3.9;3.1;;;;;;;19.79;62.05273;937.8245;;;;
2023/06/06 05:33:25;;;;;;;4.1;3;;;;;;;21.16;56.67773;937.7128;;;;
2023/06/06 05:35:49;;;;;;;3.4;2.6;;;;;;;20.7;57.07324;937.769;;;;
2023/06/06 05:38:19;;;;;;;3.3;2.8;;;;;;;19.57;61.40527;937.8234;;;;
2023/06/06 05:40:53;;;;;;;5;2.8;;;;;;;20.23;59.66211;937.7924;;;;
2023/06/06 05:43:22;;;;;;;3.6;2.7;;;;;;;21.27;56.83203;937.8014;;;;
2023/06/06 05:45:47;;;;;;;3.6;3;;;;;;;22.23;54.97363;937.8414;;;;
2023/06/06 05:48:18;;;;;;;3.9;3;;;;;;;22.68;54.25391;937.8386;;;;
2023/06/06 05:50:45;;;;;;;3.4;2.9;;;;;;;23.19;51.69629;937.8529;;;;
2023/06/06 05:53:15;;;;;;;3.1;2.8;;;;;;;23.43;52.48828;937.8411;;;;
2023/06/06 05:55:40;;;;;;;4;3.1;;;;;;;21.4;54.09766;937.7252;;;;
2023/06/06 05:58:11;;;;;;;4.2;3.3;;;;;;;21.11;58.30859;937.7859;;;;
2023/06/06 06:00:38;;;;;;;3.1;2.5;;;;;;;22.38;55.15625;937.7648;;;;
2023/06/06 06:03:03;;;;;;;3.4;2.8;;;;;;;23.28;52.62305;937.7567;;;;
2023/06/06 06:05:33;;;;;;;4;2.8;;;;;;;23.05;51.73926;937.8208;;;;
2023/06/06 06:07:59;;;;;;;3.4;2.6;;;;;;;22.19;51.4375;937.8292;;;;
2023/06/06 06:10:23;;;;;;;4.5;3.1;;;;;;;21.77;53.73242;937.8412;;;;
2023/06/06 06:12:49;;;;;;;3.7;2.9;;;;;;;22.93;52.98047;937.8557;;;;
2023/06/06 06:15:14;;;;;;;3.1;2.7;;;;;;;21.68;54.8457;937.851;;;;
2023/06/06 06:17:39;;;;;;;4.5;2.8;;;;;;;22.36;51.42285;937.8613;;;;
2023/06/06 06:20:08;;;;;;;4.4;2.7;;;;;;;21.04;55.79688;937.8745;;;;
2023/06/06 06:22:31;;;;;;;4.1;2.9;;;;;;;21.52;56.94629;937.8388;;;;
2023/06/06 06:24:57;;;;;;;3.1;2.8;;;;;;;22.22;54.02246;937.8505;;;;
2023/06/06 06:27:22;;;;;;;3.1;2.8;;;;;;;23.52;49.08789;937.8124;;;;
2023/06/06 06:29:50;;;;;;;3.1;2.8;;;;;;;22.79;51.09668;937.8918;;;;
2023/06/06 06:32:16;;;;;;;6;2.9;;;;;;;24.05;49.12207;937.8677;;;;
2023/06/06 06:34:40;;;;;;;3.4;3;;;;;;;24.26;50.46484;937.9154;;;;
2023/06/06 06:37:07;;;;;;;2.8;2.5;;;;;;;24.17;48.72363;937.8836;;;;
2023/06/06 06:39:32;;;;;;;2.8;2.6;;;;;;;25.07;46.39063;937.8716;;;;
2023/06/06 06:42:01;;;;;;;4.5;2.7;;;;;;;22.77;51.82324;937.9372;;;;
2023/06/06 06:44:26;;;;;;;3;2.7;;;;;;;24.6;48.18066;937.9387;;;;
2023/06/06 06:46:53;;;;;;;3;2.7;;;;;;;25.56;46.70215;937.9503;;;;
2023/06/06 06:49:20;;;;;;;2.8;2.6;;;;;;;26.45;42.90039;938.0017;;;;
2023/06/06 06:51:44;;;;;;;4;2.6;;;;;;;26.58;44.71191;938.0349;;;;
2023/06/06 06:54:09;;;;;;;2.7;2.4;;;;;;;26.87;42.83301;938.0598;;;;
2023/06/06 06:56:36;;;;;;;3.9;2.6;;;;;;;27.48;41.70508;938.0995;;;;
2023/06/06 06:59:01;;;;;;;4.9;3.1;;;;;;;26.79;41.55762;938.0666;;;;
2023/06/06 07:01:30;;;;;;;2.9;2.6;;;;;;;26.83;42.65234;938.08;;;;
2023/06/06 07:03:58;;;;;;;5;3;;;;;;;27.36;43.12891;938.0773;;;;
2023/06/06 07:06:23;;;;;;;5.4;3.2;;;;;;;28.63;40.1709;937.9855;;;;
2023/06/06 07:08:52;;;;;;;3.8;3;;;;;;;27.52;44.43848;938.0717;;;;
2023/06/06 07:11:16;;;;;;;3.7;2.7;;;;;;;26.64;44.9668;938.0411;;;;
2023/06/06 07:13:43;;;;;;;3.9;2.8;;;;;;;24.11;51.63672;938.0097;;;;
2023/06/06 07:16:08;;;;;;;3.3;2.7;;;;;;;22.77;58.46777;938.0248;;;;
2023/06/06 07:18:35;;;;;;;3.6;2.8;;;;;;;24.28;53.35449;937.9984;;;;
2023/06/06 07:21:00;;;;;;;3.5;3.2;;;;;;;24.84;52.74902;937.9832;;;;
2023/06/06 07:23:28;;;;;;;3.1;2.7;;;;;;;24.61;51.55469;937.9177;;;;
2023/06/06 07:25:53;;;;;;;4.4;2.7;;;;;;;24.29;54.03809;937.9416;;;;
2023/06/06 07:28:25;;;;;;;4.6;3;;;;;;;23.61;55.84961;937.9568;;;;
2023/06/06 07:30:48;;;;;;;2.7;2.5;;;;;;;24.01;54.70996;937.9537;;;;
2023/06/06 07:33:19;;;;;;;3.2;2.8;;;;;;;23.29;52.10742;937.9694;;;;
2023/06/06 07:35:43;;;;;;;3.1;2.8;;;;;;;23.57;53.41016;937.9161;;;;
2023/06/06 07:38:15;;;;;;;4.9;3.1;;;;;;;22.95;55.19141;937.9244;;;;
2023/06/06 07:40:44;;;;;;;3.6;2.9;;;;;;;22.81;58.25098;937.9162;;;;
2023/06/06 07:43:11;;;;;;;3.5;3.2;;;;;;;22.82;57.8291;937.895;;;;
2023/06/06 07:45:39;;;;;;;3.8;3;;;;;;;21.88;59.18262;937.9619;;;;
2023/06/06 07:48:05;;;;;;;3.7;3.1;;;;;;;25.04;51.63867;937.9178;;;;
2023/06/06 07:50:35;;;;;;;3.5;3.2;;;;;;;23.87;54.34082;937.9149;;;;
2023/06/06 07:53:03;;;;;;;3.8;3.4;;;;;;;26.12;47.36328;937.9314;;;;
2023/06/06 07:55:30;;;;;;;5.1;3.5;;;;;;;26.67;46.49805;937.9143;;;;
2023/06/06 07:57:56;;;;;;;3.9;3.4;;;;;;;27.8;43.39746;937.8723;;;;
2023/06/06 08:00:18;;;;;;;4.5;3.6;;;;;;;28.32;42.33008;937.8769;;;;
2023/06/06 08:02:47;;;;;;;4.1;3.7;;;;;;;28.41;43.63477;937.8602;;;;
2023/06/06 08:05:18;;;;;;;4.7;3.9;;;;;;;26.81;47.11621;937.8557;;;;
2023/06/06 08:07:48;;;;;;;4.3;3.8;;;;;;;27.82;44.64551;937.7712;;;;
2023/06/06 08:10:12;;;;;;;5.9;4;;;;;;;27.42;44.73633;937.8152;;;;
2023/06/06 08:12:42;;;;;;;5;4.3;;;;;;;27.33;45.49902;937.8334;;;;
2023/06/06 08:15:10;;;;;;;6.7;4.9;;;;;;;27.83;43.48242;937.7576;;;;
2023/06/06 08:17:34;;;;;;;6.5;4.7;;;;;;;28.45;42.74609;937.7145;;;;
2023/06/06 08:20:03;;;;;;;4.8;4.3;;;;;;;28.95;41.68652;937.7294;;;;
2023/06/06 08:22:29;;;;;;;4.9;4.5;;;;;;;28.47;43.54492;937.7133;;;;
2023/06/06 08:24:55;;;;;;;5.2;4.7;;;;;;;30.03;40.15234;937.7667;;;;
2023/06/06 08:27:20;;;;;;;5.5;5;;;;;;;29.94;40.22754;937.7597;;;;
2023/06/06 08:29:50;;;;;;;5.5;4.9;;;;;;;28.36;43.6416;937.707;;;;
2023/06/06 08:32:15;;;;;;;6;5.2;;;;;;;27.77;46.3623;937.7863;;;;
2023/06/06 08:34:43;;;;;;;6.5;5.3;;;;;;;26.58;48.35938;937.7238;;;;
2023/06/06 08:37:08;;;;;;;6.3;5.1;;;;;;;26.15;51.50781;937.7347;;;;
2023/06/06 08:39:34;;;;;;;5.9;5.3;;;;;;;26.7;48.41895;937.8175;;;;
2023/06/06 08:41:59;;;;;;;5.8;5.2;;;;;;;28.33;44.88672;937.7593;;;;
2023/06/06 08:44:29;;;;;;;6.5;5.8;;;;;;;26.77;48;937.7809;;;;
2023/06/06 08:46:54;;;;;;;6.4;5.7;;;;;;;27.09;45.60547;937.7542;;;;
2023/06/06 08:49:23;;;;;;;7.2;5.8;;;;;;;27.11;45.91504;937.7726;;;;
2023/06/06 08:51:48;;;;;;;6.9;5.8;;;;;;;28.11;44.62695;937.7701;;;;
2023/06/06 08:54:13;;;;;;;6.1;5.5;;;;;;;28.24;42.78516;937.7491;;;;
2023/06/06 08:56:38;;;;;;;7.6;5.4;;;;;;;28.05;44.58594;937.7001;;;;
2023/06/06 08:59:08;;;;;;;5.7;5.2;;;;;;;27.46;45.28613;937.6982;;;;
2023/06/06 09:01:33;;;;;;;7.1;5.2;;;;;;;26.15;48.4668;937.7252;;;;
2023/06/06 09:04:02;;;;;;;6.8;5.5;;;;;;;26.99;46.76758;937.688;;;;
2023/06/06 09:06:34;;;;;;;5.9;5.3;;;;;;;27.65;44.6416;937.7031;;;;
2023/06/06 09:09:01;;;;;;;7.3;5.4;;;;;;;27.47;46.18945;937.6699;;;;
2023/06/06 09:11:26;;;;;;;6.7;5.9;;;;;;;27.31;45.33203;937.6724;;;;
2023/06/06 09:13:55;;;;;;;6.7;5.4;;;;;;;26.93;45.64844;937.6528;;;;
2023/06/06 09:16:20;;;;;;;6.9;5.4;;;;;;;26.78;47.76563;937.6321;;;;
2023/06/06 09:18:49;;;;;;;5.1;4.6;;;;;;;27.28;47.26074;937.6351;;;;
2023/06/06 09:21:14;;;;;;;6.3;5.5;;;;;;;25.95;51.58984;937.6486;;;;
2023/06/06 09:23:41;;;;;;;6.6;5.9;;;;;;;25.35;53.33887;937.601;;;;
2023/06/06 09:26:06;;;;;;;7.3;5.7;;;;;;;25.91;53.62012;937.5772;;;;
2023/06/06 09:28:31;;;;;;;6;5.1;;;;;;;25.79;50.75684;937.5455;;;;
2023/06/06 09:30:59;;;;;;;5.6;5.1;;;;;;;25.97;50.91797;937.5649;;;;
2023/06/06 09:33:24;;;;;;;6.4;4.7;;;;;;;26.42;49.82227;937.6183;;;;
2023/06/06 09:35:52;;;;;;;5.1;4.6;;;;;;;26.22;51.34961;937.6163;;;;
2023/06/06 09:38:17;;;;;;;5.4;4.9;;;;;;;25.99;50.02246;937.6063;;;;
2023/06/06 09:40:43;;;;;;;4.9;4.3;;;;;;;24.45;55.07129;937.5871;;;;
2023/06/06 09:43:08;;;;;;;5.2;4.7;;;;;;;24.21;55.88965;937.5424;;;;
2023/06/06 09:45:33;;;;;;;6.4;5.5;;;;;;;23.39;58.20898;937.5508;;;;
2023/06/06 09:48:00;;;;;;;9.8;6.3;;;;;;;22.69;59.94824;937.5775;;;;
2023/06/06 09:50:25;;;;;;;6.5;5.4;;;;;;;22.19;61.49805;937.5306;;;;
2023/06/06 09:52:55;;;;;;;6.1;5.2;;;;;;;22.07;62.30371;937.5428;;;;
2023/06/06 09:55:22;;;;;;;7.2;5.7;;;;;;;22.95;60.99219;937.6111;;;;
2023/06/06 09:57:49;;;;;;;8.2;5.5;;;;;;;22.63;65.30469;937.466;;;;
2023/06/06 10:00:22;;;;;;;6.7;5.6;;;;;;;22.28;62.73145;937.5338;;;;
2023/06/06 10:02:47;;;;;;;9.1;5.3;;;;;;;21.62;62.73242;937.4853;;;;
2023/06/06 10:05:16;;;;;;;7.6;5.7;;;;;;;21.85;63.44336;937.5323;;;;
2023/06/06 10:07:44;;;;;;;7.5;6;;;;;;;21.93;62.48438;937.5626;;;;
2023/06/06 10:10:06;;;;;;;6.5;5.8;;;;;;;21.82;63.2168;937.4724;;;;
2023/06/06 10:12:33;;;;;;;6.9;5.1;;;;;;;21.84;61.30957;937.5352;;;;
2023/06/06 10:14:58;;;;;;;9.9;5.9;;;;;;;21.84;64.04004;937.4718;;;;
2023/06/06 10:17:25;;;;;;;6.7;5;;;;;;;22.06;61.30469;937.507;;;;
2023/06/06 10:19:50;;;;;;;7.5;6;;;;;;;21.59;62.10645;937.4655;;;;
2023/06/06 10:22:17;;;;;;;7.8;5.9;;;;;;;21.2;64.81445;937.4014;;;;
2023/06/06 10:24:42;;;;;;;6.5;5.3;;;;;;;21.3;62.72168;937.4969;;;;
2023/06/06 10:27:07;;;;;;;6.7;5.7;;;;;;;20.99;64.31348;937.4818;;;;
2023/06/06 10:29:33;;;;;;;8;5.6;;;;;;;20.21;66.24512;937.4788;;;;
2023/06/06 10:31:59;;;;;;;7.1;5.8;;;;;;;19.96;68.45898;937.4993;;;;
2023/06/06 10:34:24;;;;;;;6.5;5.8;;;;;;;20.02;66.90332;937.5009;;;;
2023/06/06 10:36:52;;;;;;;6.2;5.6;;;;;;;19.54;69.08105;937.5571;;;;
2023/06/06 10:39:17;;;;;;;7.9;5.6;;;;;;;19.39;68.97656;937.5062;;;;
2023/06/06 10:41:49;;;;;;;5.7;5.1;;;;;;;19.88;69.83398;937.4506;;;;
2023/06/06 10:44:19;;;;;;;6.4;5;;;;;;;20.62;68.49121;937.4561;;;;
2023/06/06 10:46:43;;;;;;;5.4;4.6;;;;;;;21.16;68.30566;937.4358;;;;
2023/06/06 10:49:09;;;;;;;6;4.7;;;;;;;21.08;63.81348;937.3842;;;;
2023/06/06 10:51:35;;;;;;;5.5;3.9;;;;;;;21.62;62.15723;937.402;;;;
2023/06/06 10:54:00;;;;;;;5.9;4.2;;;;;;;21.62;59.19531;937.3524;;;;
2023/06/06 10:56:30;;;;;;;5.3;3.9;;;;;;;21.48;59.09473;937.3915;;;;
2023/06/06 10:58:55;;;;;;;5.7;4.2;;;;;;;21.05;59.8916;937.3641;;;;
2023/06/06 11:01:20;;;;;;;5.3;4.1;;;;;;;20.9;60.6543;937.3953;;;;
2023/06/06 11:03:46;;;;;;;7.3;4.3;;;;;;;20.81;61.44824;937.4272;;;;
2023/06/06 11:06:12;;;;;;;4.4;3.9;;;;;;;21.3;61.42383;937.3759;;;;
2023/06/06 11:08:37;;;;;;;4.8;3.5;;;;;;;21.94;57.67969;937.4327;;;;
2023/06/06 11:11:02;;;;;;;6;3.9;;;;;;;22.01;56.77441;937.426;;;;
2023/06/06 11:13:27;;;;;;;4.7;3.8;;;;;;;22.4;55.66309;937.3875;;;;
2023/06/06 11:15:52;;;;;;;4.2;3.7;;;;;;;22.48;56.74023;937.363;;;;
2023/06/06 11:18:17;;;;;;;4.7;3.5;;;;;;;22.64;53.78027;937.2977;;;;
2023/06/06 11:20:42;;;;;;;4.3;3.5;;;;;;;22.56;56.32715;937.2966;;;;
2023/06/06 11:23:08;;;;;;;5.4;3.4;;;;;;;22.63;55.33984;937.3078;;;;
2023/06/06 11:25:37;;;;;;;5;3.3;;;;;;;22.06;55.84277;937.2587;;;;
2023/06/06 11:28:02;;;;;;;4.9;3.3;;;;;;;22.05;54.90332;937.2784;;;;
2023/06/06 11:30:29;;;;;;;4.8;3.4;;;;;;;21.71;56.63086;937.2441;;;;
2023/06/06 11:32:54;;;;;;;4.1;3.5;;;;;;;21.92;55.87207;937.2428;;;;
2023/06/06 11:35:28;;;;;;;3.6;3.3;;;;;;;21.77;55.87598;937.2269;;;;
2023/06/06 11:37:54;;;;;;;4.6;3.3;;;;;;;21.51;57.82324;937.2437;;;;
2023/06/06 11:40:20;;;;;;;3.7;2.9;;;;;;;22.16;55.16309;937.2751;;;;
2023/06/06 11:42:45;;;;;;;5.5;2.9;;;;;;;22.58;54.66406;937.2395;;;;
2023/06/06 11:45:15;;;;;;;4;3;;;;;;;23.11;50.74609;937.1884;;;;
2023/06/06 11:47:40;;;;;;;4.5;3;;;;;;;23.29;51.38965;937.2569;;;;
2023/06/06 11:50:12;;;;;;;5.2;3.1;;;;;;;22.9;52.37891;937.2206;;;;
2023/06/06 11:52:41;;;;;;;5.4;3.1;;;;;;;22.74;53.9082;937.2404;;;;
2023/06/06 11:55:06;;;;;;;3.9;3.2;;;;;;;22.31;51.19531;937.2073;;;;
2023/06/06 11:57:33;;;;;;;4.5;3.3;;;;;;;22.27;51.04883;937.1467;;;;
2023/06/06 11:59:59;;;;;;;5;3.5;;;;;;;21.86;55.4668;937.1646;;;;
2023/06/06 12:02:25;;;;;;;3.5;3.2;;;;;;;22.19;54.20605;937.116;;;;
2023/06/06 12:04:50;;;;;;;5.2;3.2;;;;;;;22.44;53.28516;937.0544;;;;
2023/06/06 12:07:18;;;;;;;3.6;3;;;;;;;22.87;53.16016;936.9427;;;;
2023/06/06 12:09:44;;;;;;;5.5;3.3;;;;;;;22.63;51.66504;936.873;;;;
2023/06/06 12:12:13;;;;;;;4.1;2.9;;;;;;;23.25;49.50488;937.0245;;;;
2023/06/06 12:14:38;;;;;;;3.6;3;;;;;;;23.29;49.07422;937.0117;;;;
2023/06/06 12:17:03;;;;;;;3.5;2.9;;;;;;;23.73;51.51172;936.9705;;;;
2023/06/06 12:19:29;;;;;;;4.6;3.3;;;;;;;23.86;48.41797;936.9971;;;;
2023/06/06 12:21:54;;;;;;;3.7;2.8;;;;;;;23.34;49.2793;936.9548;;;;
2023/06/06 12:24:21;;;;;;;3.7;3.1;;;;;;;23.07;50.33008;936.8642;;;;
2023/06/06 12:26:51;;;;;;;3.4;2.9;;;;;;;22.72;50.87891;936.9033;;;;
2023/06/06 12:29:12;;;;;;;3.7;2.9;;;;;;;23.02;50.33691;936.8811;;;;
2023/06/06 12:31:40;;;;;;;3.3;3;;;;;;;23.15;49.06934;936.9171;;;;
2023/06/06 12:34:03;;;;;;;3.5;3.2;;;;;;;23.03;50.19727;936.9412;;;;
2023/06/06 12:36:31;;;;;;;3.3;3;;;;;;;23.28;50.47168;936.9444;;;;
2023/06/06 12:38:58;;;;;;;5.2;3.2;;;;;;;22.66;50.80078;936.887;;;;
2023/06/06 12:41:23;;;;;;;5.4;3.2;;;;;;;22.91;50.93555;936.8258;;;;
2023/06/06 12:43:48;;;;;;;6.8;3.2;;;;;;;22.5;52.625;936.8482;;;;
2023/06/06 12:46:14;;;;;;;5;3.3;;;;;;;22.2;50.00977;936.9064;;;;
2023/06/06 12:48:39;;;;;;;3.8;3.3;;;;;;;22.15;53.19238;936.9178;;;;
2023/06/06 12:51:06;;;;;;;3.7;3;;;;;;;22.46;53.125;936.9528;;;;
2023/06/06 12:53:32;;;;;;;4.2;3.1;;;;;;;22.54;52.55859;936.954;;;;
2023/06/06 12:55:58;;;;;;;7.4;3.6;;;;;;;22.3;49.31738;936.9506;;;;
2023/06/06 12:58:25;;;;;;;6.2;3.1;;;;;;;22.6;52.0498;936.8259;;;;
2023/06/06 13:00:53;;;;;;;3.6;2.9;;;;;;;23.02;49.18555;936.9048;;;;
2023/06/06 13:03:18;;;;;;;5.4;3.1;;;;;;;23.06;49.40137;936.8792;;;;
2023/06/06 13:05:50;;;;;;;3.8;2.8;;;;;;;22.49;49.72559;936.9056;;;;
2023/06/06 13:08:12;;;;;;;3;2.7;;;;;;;22.82;48.78809;936.9459;;;;
2023/06/06 13:10:42;;;;;;;4.9;2.8;;;;;;;22.92;51.89844;936.9348;;;;
2023/06/06 13:13:07;;;;;;;6.3;3.2;;;;;;;22.4;52.09668;936.9573;;;;
2023/06/06 13:15:44;;;;;;;4.7;3;;;;;;;22.51;49.87988;936.9519;;;;
2023/06/06 13:18:13;;;;;;;4.8;3.1;;;;;;;22.45;50.16699;936.9744;;;;
2023/06/06 13:20:43;;;;;;;3.7;2.8;;;;;;;22.19;51.76758;937.0023;;;;
2023/06/06 13:23:08;;;;;;;4.6;3.2;;;;;;;22.01;52.21484;937.0165;;;;
2023/06/06 13:25:37;;;;;;;3.3;3;;;;;;;21.78;52.14063;936.8762;;;;
2023/06/06 13:28:06;;;;;;;3.4;2.9;;;;;;;21.96;51.54199;936.8878;;;;
2023/06/06 13:30:32;;;;;;;4.1;3.1;;;;;;;22.18;51.22656;936.8113;;;;
2023/06/06 13:32:58;;;;;;;6.8;3.1;;;;;;;22.36;50.3916;936.8298;;;;
2023/06/06 13:35:23;;;;;;;3.6;3;;;;;;;22.36;48.75977;936.8219;;;;
2023/06/06 13:37:51;;;;;;;3.9;2.9;;;;;;;22.63;49.2002;936.8421;;;;
2023/06/06 13:40:16;;;;;;;5.7;2.9;;;;;;;22.6;48.16504;936.8826;;;;
2023/06/06 13:42:46;;;;;;;5.4;2.8;;;;;;;22.87;49.00488;936.8766;;;;
2023/06/06 13:45:15;;;;;;;3.6;2.6;;;;;;;22.66;47.94824;936.9227;;;;
2023/06/06 13:47:40;;;;;;;3.5;3;;;;;;;22.35;48.02051;936.9041;;;;
2023/06/06 13:50:10;;;;;;;3.5;2.8;;;;;;;22.23;51.45605;936.9037;;;;
2023/06/06 13:52:42;;;;;;;3.9;2.7;;;;;;;22.5;48.00098;936.8842;;;;
2023/06/06 13:55:10;;;;;;;3.9;2.7;;;;;;;22.36;50.73145;936.8882;;;;
2023/06/06 13:57:40;;;;;;;3.3;2.9;;;;;;;22.43;49.93066;936.8858;;;;
2023/06/06 14:00:00;;;;;;;4.7;2.9;;;;;;;22.56;49.35645;936.9127;;;;
2023/06/06 14:02:28;;;;;;;3.6;2.8;;;;;;;22.43;49.70605;936.9307;;;;
2023/06/06 14:04:53;;;;;;;5.3;3;;;;;;;22.16;49.19531;936.8625;;;;
2023/06/06 14:07:23;;;;;;;5.3;3.2;;;;;;;21.93;48.23242;936.9359;;;;
2023/06/06 14:09:53;;;;;;;3.8;2.7;;;;;;;22.06;50.19336;936.9358;;;;
2023/06/06 14:12:19;;;;;;;3.9;2.9;;;;;;;22.01;50.8916;936.9239;;;;
2023/06/06 14:14:47;;;;;;;6.6;2.9;;;;;;;22.17;51.70605;936.8774;;;;
2023/06/06 14:17:11;;;;;;;4.9;2.9;;;;;;;22.04;48.94922;936.8292;;;;
2023/06/06 14:19:38;;;;;;;5.9;3;;;;;;;21.88;48.98828;936.7742;;;;
2023/06/06 14:22:20;;;;;;;7.1;3;;;;;;;21.72;49.07715;936.7113;;;;
2023/06/06 14:24:30;;;;;;;3.9;2.8;;;;;;;21.97;50.47656;936.817;;;;
2023/06/06 14:26:53;;;;;;;4;2.8;;;;;;;22.11;48.80469;936.7595;;;;
2023/06/06 14:29:21;;;;;;;3.2;2.7;;;;;;;22.25;49.12402;936.8;;;;
2023/06/06 14:31:45;;;;;;;4.3;3.3;;;;;;;22.06;48.08398;936.9041;;;;
2023/06/06 14:34:15;;;;;;;4.3;2.8;;;;;;;22.06;47.42676;936.8278;;;;
2023/06/06 14:36:44;;;;;;;4.4;3.1;;;;;;;21.8;49.41406;936.8511;;;;
2023/06/06 14:39:09;;;;;;;4.6;3.2;;;;;;;21.59;48.86328;936.8463;;;;
2023/06/06 14:41:39;;;;;;;4.8;3;;;;;;;21.5;49.09863;936.8755;;;;